Select your language:
24 hrs Sittard   Hier könnte ihre Werbung stehen!  
  年代別階級:   年:   国:

この大会の歴代記録:

El Valle Ultra 50K

距離: 50km この大会の詳細。
ランキング対象: いいえ (2024-2026) 複数回完走者
 
229個の検索結果のうち1個目から229個目まで。
順位 記録 開催日 氏名 国籍 生年 順位 男/女 男女別順位 年代別階級 年代別順位
1 5:21:11 時間   17.01.2026  Bianchi, Gabriel GUA  1997 1 男子 1 M20 1
2 5:38:43 時間   18.01.2025  Gomez Paliz, Paul ECU  1986 1 男子 1 M35 1
3 5:47:13 時間   17.01.2026  do Nascimento Ferreira Junior, Ademar BRA  1975 2 男子 2 M50 1
4 5:51:57 時間   18.01.2025  Varcasia, Jose PAN  1986 2 男子 2 M35 2
5 6:01:18 時間   18.01.2025  Guezou, Bastien FRA  1988 3 男子 3 M35 3
6 6:02:07 時間   17.01.2026  Rivera Alape, Johan Sebastian COL  1998 3 男子 3 M20 2
7 6:08:39 時間   17.01.2026  Guezou, Bastien FRA  1988 4 男子 4 M35 1
8 6:08:39 時間   17.01.2026  Gomez, Paul ECU  1988 4 男子 4 M35 1
9 6:13:40 時間   18.01.2025  Bontemps, Damien FRA  1986 4 男子 4 M35 4
10 6:20:37 時間   13.01.2024  Bontemps, Damien FRA  1986 1 男子 1 M35 1
11 6:21:48 時間   17.01.2026  Alvarado, Gabriel PAN  2000 6 男子 6 M20 3
12 6:29:46 時間   13.01.2024  Alonzo, Jose PAN  1997 2 男子 2 M20 1
13 6:35:48 時間   18.01.2025  Rivera Alape, Johan Sebastian COL  1998 5 男子 5 M20 1
14 6:46:42 時間   17.01.2026  Bontemps, Damien FRA  1986 7 男子 7 M40 1
15 6:49:33 時間   17.01.2026  Arias Arias, Cesar Augusto ECU  2003 8 男子 8 M20 4
16 6:51:17 時間   17.01.2026  Rodriguez Reyes, Isaias PAN  1996 9 男子 9 M30 1
17 6:54:26 時間   17.01.2026  Martinez Castano, Leidy Johana COL  1985 10 女子 1 W40 1
18 6:57:21 時間   18.01.2025  Rodriguez Reyes, Isaias PAN  1996 6 男子 6 M20 2
19 6:58:37 時間   17.01.2026  Torres, Maxwell COL  2002 11 男子 10 M20 5
20 7:07:34 時間   13.01.2024  Costarangos, Monica PAN  1993 3 女子 1 W30 1
21 7:11:55 時間   18.01.2025  Irrazabal Alarcon, Valentina CHI  1993 7 女子 1 W30 1
22 7:13:47 時間   17.01.2026  Vega, Gerardo PAN  1992 12 男子 11 M30 2
23 7:16:34 時間   17.01.2026  Ramos, Justo PAN  1994 13 男子 12 M30 3
24 7:18:08 時間   17.01.2026  Quesada Guerrero, Juan Pablo CRC    14 男子 13 #NA  
25 7:19:42 時間   17.01.2026  Urena Rojas, Roger PAN  1985 15 男子 14 M40 2
26 7:25:54 時間   18.01.2025  Grimm, Sophie USA  2001 8 男子 7 M20 3
27 7:26:32 時間   17.01.2026  Nunez, Ramses PAN  1992 16 男子 15 M30 4
28 7:27:05 時間   18.01.2025  Dementiev, Carolina PAN  1989 9 女子 2 W35 1
29 7:29:08 時間   17.01.2026  Mandarakas, Chemi PAN  1972 17 男子 16 M50 2
30 7:33:06 時間   17.01.2026  Chacon, Felix PAN  1978 18 男子 17 M45 1
31 7:34:01 時間   17.01.2026  Costarangos, Monica PAN  1993 19 女子 2 W30 1
32 7:38:21 時間   18.01.2025  Fonseca, Rodrigo BRA  1994 10 男子 8 M30 1
33 7:38:37 時間   17.01.2026  Cordon, Mario PAN  1985 20 男子 18 M40 3
34 7:38:39 時間   17.01.2026  Pomares, Crescencio PAN  1993 21 男子 19 M30 5
35 7:39:08 時間   13.01.2024  Rodriguez Reyes, Isaias PAN  1996 4 男子 3 M20 2
36 7:41:26 時間   17.01.2026  Solano Mendez, Luis Felipe COL  1983 22 男子 20 M40 4
37 7:42:30 時間   18.01.2025  Rodriguez Medrano, Jonathan PAN  1987 11 男子 9 M35 5
38 7:42:54 時間   18.01.2025  Mata, Cristy PAN  1986 12 女子 3 W35 2
39 7:44:26 時間   17.01.2026  Baldion, Carlos COL  1994 23 男子 21 M30 6
40 7:45:07 時間   17.01.2026  Correa, Carlos VEN  1990 24 男子 22 M35 3
41 7:45:17 時間   17.01.2026  Castillo, Franklin PAN  1984 25 男子 23 M40 5
42 7:48:34 時間   18.01.2025  Barrios, Olson PAN  1977 13 男子 10 M45 1
43 7:49:02 時間   18.01.2025  Pomares, Crescencio PAN  1993 14 男子 11 M30 2
44 7:54:07 時間   18.01.2025  Caballero, Rodrigo PAN  1993 15 男子 12 M30 3
45 7:55:52 時間   17.01.2026  Mendoza, Carmen PAN  1985 26 女子 3 W40 2
46 7:57:55 時間   18.01.2025  Hernandez Castillo, Luis Carlos PAN  1991 16 男子 13 M30 4
47 7:58:02 時間   18.01.2025  Mendoza Garcia, Carmen PAN  1985 17 女子 4 W40 1
48 7:59:08 時間   17.01.2026  Montesdeoca, Jaime ECU  1995 27 男子 24 M30 7
49 8:00:29 時間   17.01.2026  Gonzalez Macias, Alexander PAN  1991 28 男子 25 M35 4
50 8:00:42 時間   17.01.2026  Mata, Cristina PAN  1986 29 女子 4 W40 3
51 8:04:32 時間   13.01.2024  Vega, Daniel PAN  1983 5 男子 4 M40 1
52 8:04:55 時間   17.01.2026  Patino Suasty, Oscar PAN  1986 30 男子 26 M40 6
53 8:05:48 時間   18.01.2025  Mandarakas, Chemi PAN  1972 18 男子 14 M50 1
54 8:06:07 時間   18.01.2025  Bascone Martin, Andrea VEN  1985 19 女子 5 W40 2
55 8:07:21 時間   17.01.2026  Batista, Manuel PAN  1996 31 男子 27 M30 8
56 8:11:34 時間   18.01.2025  Perez Sanchez, Ceyro Alexander PAN  1995 20 男子 15 M30 5
57 8:12:55 時間   17.01.2026  Ajcabul, Alejandro GUA  2000 32 男子 28 M20 6
58 8:14:29 時間   13.01.2024  Mata, Cristina PAN  1986 6 女子 2 W35 1
59 8:16:17 時間   17.01.2026  Mini, Constanza ITA  1975 33 女子 5 W50 1
60 8:16:20 時間   17.01.2026  Lemma, Emmanuel ARG  1983 34 男子 29 M40 7
61 8:17:38 時間   18.01.2025  Lopez, Rodrigo E. PAN  1985 21 男子 16 M40 1
62 8:19:33 時間   13.01.2024  Rodriguez Rivas, Fidel PAN  1981 7 男子 5 M40 2
63 8:20:46 時間   17.01.2026  Gutierrez, Fermin PAN  1979 35 男子 30 M45 2
64 8:24:28 時間   13.01.2024  Camargo Montero, Thelma PAN  1979 8 女子 3 W45 1
65 8:25:42 時間   18.01.2025  Camargo Montero, Thelma PAN  1979 22 女子 6 W45 1
66 8:25:56 時間   17.01.2026  Aleman, Estefania PAN  1988 36 女子 6 W35 1
67 8:26:08 時間   18.01.2025  McPherson, Guillermo PAN  1997 23 男子 17 M20 4
68 8:26:24 時間   18.01.2025  Gonzalez Macias, Alexander PAN  1991 24 男子 18 M30 6
69 8:28:18 時間   13.01.2024  Corrales Gonzalez, Dionisio PAN  1970 9 男子 6 M50 1
70 8:29:54 時間   18.01.2025  Bennett, Irving PAN  1961 25 男子 19 M60 1
71 8:30:10 時間   18.01.2025  Mini, Constanza ITA  1975 26 女子 7 W50 1
72 8:30:22 時間   17.01.2026  Serrano Fernandez, Wendy COL  1995 37 女子 7 W30 2
73 8:30:36 時間   17.01.2026  Caballero, Rodrigo PAN  1993 38 男子 31 M30 9
74 8:30:56 時間   17.01.2026  Rodriguez Medrano, Jonathan PAN  1987 39 男子 32 M35 5
75 8:31:40 時間   17.01.2026  Morales Mora, Yan Carlos CRC    40 男子 33 #NA  
76 8:32:13 時間   13.01.2024  Batista, Manuel PAN  1993 10 男子 7 M30 1
77 8:32:19 時間   18.01.2025  Diaz, Jorge PAN  1975 27 男子 20 M50 2
78 8:32:21 時間   18.01.2025  de la Cruz, Ezequiel Enrique PAN  1986 28 男子 21 M35 6
79 8:35:02 時間   18.01.2025  Lorenzo Avila, Juan David PAN  1990 29 男子 22 M35 7
80 8:35:32 時間   18.01.2025  Dominguez Gonzalez, Evaristo Javier PAN  1969 30 男子 23 M55 1
81 8:37:03 時間   13.01.2024  Perez, Ceyro PAN  1967 11 男子 8 M55 1
82 8:37:11 時間   17.01.2026  Sanchez, Juan Luis PAN    41 男子 34 #NA  
83 8:37:35 時間   17.01.2026  Ratner, Camila ARG  1995 42 女子 8 W30 3
84 8:39:08 時間   17.01.2026  Estribi, Giselle Paola PAN  1986 43 女子 9 W40 4
85 8:39:10 時間   17.01.2026  Agrazal, Alberto PAN  1991 44 男子 35 M35 6
86 8:41:16 時間   17.01.2026  Monge Mora, Sonia CRC  1989 45 女子 10 W35 2
87 8:43:26 時間   13.01.2024  Diaz, Jorge PAN  1988 12 男子 9 M35 2
88 8:44:52 時間   17.01.2026  Diaz, Jorge PAN  1975 46 男子 36 M50 3
89 8:45:25 時間   18.01.2025  Vazquez Rodriguez, Angel ESP  1976 31 男子 24 M45 2
90 8:47:33 時間   13.01.2024  Rodriguez Medrano, Jonathan PAN  1987 13 男子 10 M35 3
91 8:47:41 時間   17.01.2026  Barria, Angel PAN  1991 47 男子 37 M35 7
92 8:49:15 時間   17.01.2026  Cortes Santos, Ovidio PAN  1976 48 男子 38 M50 4
93 8:50:04 時間   17.01.2026  Ortega, Carlos PAN  1979 49 男子 39 M45 3
94 8:50:45 時間   17.01.2026  Gonzalez Batista, Pedro Valentin PAN  1970 50 男子 40 M55 1
95 8:51:05 時間   17.01.2026  Gillespie, Jonathan NZL  1981 51 男子 41 M45 4
96 8:52:06 時間   17.01.2026  Camargo Montero, Thelma PAN  1979 52 女子 11 W45 1
97 8:54:19 時間   17.01.2026  Hernandez Rojas, Jenny PAN  1987 53 女子 12 W35 3
98 8:55:36 時間   18.01.2025  Powen, Thomas PAN  1998 32 男子 25 M20 5
99 8:56:04 時間   17.01.2026  Machado, Adrian VEN  1990 54 男子 42 M35 8
100 8:56:12 時間   13.01.2024  Yaishenkin, Leonid RUS  1989 14 男子 11 M35 4
101 8:59:13 時間   17.01.2026  Londono Salinas, Alexandra PAN  1989 55 女子 13 W35 4
102 8:59:46 時間   18.01.2025  Chacon, Felix PAN  1978 33 男子 26 M45 3
103 9:00:16 時間   17.01.2026  Escudero, Ivan PAN  1976 56 男子 43 M50 5
104 9:01:05 時間   13.01.2024  Lorenzo Avila, Juan David PAN  1990 15 男子 12 M30 2
105 9:02:02 時間   17.01.2026  Castellanos, Daniel PAN  1987 57 男子 44 M35 9
106 9:03:38 時間   18.01.2025  Araujo, Carlos Augusto BRA  1981 34 男子 27 M40 2
107 9:04:58 時間   13.01.2024  Gutierrez, Fermin PAN  1978 16 女子 4 W45 2
108 9:05:09 時間   13.01.2024  Rodriguez, Jose Luis PAN  1993 17 男子 13 M30 3
109 9:05:23 時間   13.01.2024  Policart, Ramon PAN  1972 18 男子 14 M50 2
110 9:05:25 時間   17.01.2026  Santana Ceballos, Victor Alejandro VEN  1994 58 男子 45 M30 10
111 9:06:16 時間   17.01.2026  Salinas Pinto, Andrea Paz CHI  1981 59 女子 14 W45 2
112 9:07:10 時間   17.01.2026  Barria, Jose PAN  1976 60 男子 46 M50 6
113 9:07:32 時間   13.01.2024  Ortega, Eduardo PAN  1988 19 男子 15 M35 5
114 9:07:37 時間   17.01.2026  Baker, Phillip COL  1961 61 男子 47 M65 1
115 9:11:13 時間   17.01.2026  Gonzalez, Leython PAN  1997 62 男子 48 M20 7
116 9:11:55 時間   17.01.2026  Alejandra, Llanos COL  1987 63 女子 15 W35 5
117 9:12:50 時間   18.01.2025  Policart, Ramon PAN  1972 35 男子 28 M50 3
118 9:14:42 時間   13.01.2024  Aguilar, Alexander PAN  1976 20 男子 16 M45 1
119 9:14:51 時間   17.01.2026  Pitti Ortiz, Maximo PAN  1977 64 男子 49 M45 5
120 9:15:19 時間   13.01.2024  Castro Rios, Marlene Judith PAN  1971 21 女子 5 W50 1
121 9:17:41 時間   17.01.2026  Bennett, Irving PAN  1961 65 男子 50 M65 2
122 9:19:56 時間   17.01.2026  Torrens Marin, Guillem PAN  1980 66 男子 51 M45 6
123 9:21:50 時間   18.01.2025  Ortega, Eduardo PAN  1988 36 男子 29 M35 8
124 9:23:38 時間   18.01.2025  Munoz Arango, Andres COL  1974 37 男子 30 M50 4
125 9:23:38 時間   18.01.2025  Caballero, Tony PAN  1974 37 男子 30 M50 4
126 9:23:53 時間   13.01.2024  Ibarra, Victor PAN  1976 22 男子 17 M45 2
127 9:25:53 時間   13.01.2024  Bennett, Irving PAN  1961 23 男子 18 M60 1
128 9:26:24 時間   18.01.2025  Corrales Gonzalez, Dionisio PAN  1970 39 男子 32 M55 2
129 9:26:30 時間   17.01.2026  Welling, Brandon USA  1983 67 男子 52 M40 8
130 9:26:40 時間   13.01.2024  Ramirez, Douglas VEN  1981 24 男子 19 M40 3
131 9:27:29 時間   17.01.2026  Rodriguez Rivas, Fidel PAN  1981 68 男子 53 M45 7
132 9:27:59 時間   17.01.2026  Ramirez, Douglas VEN  1981 69 男子 54 M45 8
133 9:28:13 時間   13.01.2024  Rodriguez Creus, Joel Alexander PAN  1986 25 男子 20 M35 6
134 9:28:49 時間   13.01.2024  Espinosa, Ana Lia PAN  1978 26 女子 6 W45 3
135 9:30:13 時間   13.01.2024  Farias Prada, Claudia VEN  1974 27 女子 7 W50 2
136 9:33:14 時間   18.01.2025  Aguilar, Alexander PAN  1976 40 男子 33 M45 4
137 9:33:22 時間   17.01.2026  Quintero, Danny PAN  1973 70 男子 55 M50 7
138 9:33:39 時間   18.01.2025  Farias, Claudia PAN  1974 41 女子 8 W50 2
139 9:33:56 時間   17.01.2026  de la Cruz, Ezequiel Enrique PAN  1986 71 男子 56 M40 9
140 9:34:43 時間   17.01.2026  Aparicio, Ovett PAN  1992 72 男子 57 M30 11
141 9:36:10 時間   17.01.2026  Brown Ortega, Gil Ernesto PAN  1994 73 男子 58 M30 12
142 9:36:47 時間   17.01.2026  Corrales Gonzalez, Dionisio PAN  1970 74 男子 59 M55 2
143 9:37:12 時間   17.01.2026  Viljoen, Adam GBR  1972 75 男子 60 M50 8
144 9:39:17 時間   17.01.2026  Alvarado, Rocio GUA  1980 76 女子 16 W45 3
145 9:40:32 時間   17.01.2026  Espinosa, Ana Lia PAN  1978 77 女子 17 W45 4
146 9:40:53 時間   18.01.2025  Gil, Adin PAN  1994 42 男子 34 M30 7
147 9:44:07 時間   13.01.2024  Correa, Jaime PAN  1979 28 男子 21 M45 3
148 9:44:48 時間   18.01.2025  Rangel, Juan Pablo PAN  1983 43 男子 35 M40 3
149 9:44:53 時間   17.01.2026  Grajales, Evelyn Angelin PAN    78 女子 18 #NA  
150 9:46:33 時間   13.01.2024  Rodriguez, Jorge PAN  1967 29 男子 22 M55 2
151 9:47:33 時間   13.01.2024  Quintero, Eladio PAN  1961 30 男子 23 M60 2
152 9:47:41 時間   18.01.2025  Espinosa, Ana Lia PAN  1978 44 女子 9 W45 2
153 9:47:51 時間   13.01.2024  Hernandez Castillo, Luis Carlos PAN  1991 31 男子 24 M30 4
154 9:47:52 時間   13.01.2024  Acosta, Rolando PAN  1968 32 男子 25 M55 3
155 9:47:54 時間   13.01.2024  Diaz, Alvaro VEN  1988 33 男子 26 M35 7
156 9:48:02 時間   13.01.2024  Martinez, Alexis PAN  1989 34 男子 27 M35 8
157 9:48:11 時間   17.01.2026  Zhang, Wenke PAN  1987 79 男子 61 M35 10
158 9:48:43 時間   17.01.2026  Davis, Frank PAN  1992 80 男子 62 M30 13
159 9:49:29 時間   18.01.2025  Pitti Ortiz, Maximo PAN  1977 45 男子 36 M45 5
160 9:49:47 時間   13.01.2024  Batista, Roberto PAN  1996 35 男子 28 M20 3
161 9:53:34 時間   17.01.2026  Terreros, Leyda PAN  1987 81 女子 19 W35 6
162 9:54:01 時間   18.01.2025  Bennett, Rogelio Eduardo PAN  1995 46 男子 37 M30 8
163 9:54:47 時間   17.01.2026  Munoz, Andres PAN  1975 82 男子 63 M50 9
164 9:56:19 時間   17.01.2026  Rodriguez, Jimmy COL  1981 83 男子 64 M45 9
165 9:56:33 時間   13.01.2024  Dumanoir, Rogelio PAN  1988 36 男子 29 M35 9
166 9:57:22 時間   17.01.2026  Rodriguez, Ormelis PAN  1972 84 男子 65 M50 10
167 9:58:10 時間   17.01.2026  Rodriguez, Jose Luis PAN  1993 85 男子 66 M30 14
168 9:58:34 時間   18.01.2025  Villarreal, Jose A. PAN  1989 47 男子 38 M35 9
169 9:59:04 時間   17.01.2026  Carrizo, Jose PAN  2004 86 男子 67 M20 8
170 9:59:21 時間   17.01.2026  Delgado, Jose VEN  1987 87 男子 68 M35 11
171 10:02:27 時間   18.01.2025  Gonzalez, Leython PAN  1997 48 男子 39 M20 6
172 10:02:59 時間   17.01.2026  Machado Zamora, Juan Carlos COL  1985 88 男子 69 M40 10
173 10:05:17 時間   18.01.2025  Chanis, Angel Luis PAN  1982 49 男子 40 M40 4
174 10:07:32 時間   17.01.2026  de la Rosa Lasa, David Enrique PAN  1999 89 男子 70 M20 9
175 10:07:53 時間   18.01.2025  Rodriguez, Jose Luis PAN  1993 50 男子 41 M30 9
176 10:07:56 時間   18.01.2025  Alemany, Suzanne PUR  1974 51 女子 10 W50 3
177 10:08:43 時間   13.01.2024  Zelayandta Mojica, Juan Pablo PAN  1974 37 男子 30 M50 3
178 10:08:45 時間   18.01.2025  Nicolet, Jean PAN  1984 52 男子 42 M40 5
179 10:09:23 時間   17.01.2026  Rodriguez, Maycol PAN  1997 90 男子 71 M20 10
180 10:09:40 時間   17.01.2026  Cabassa, Pia Gabriela PAN  1993 91 女子 20 W30 4
181 10:09:42 時間   17.01.2026  Rodriguez Zurita, Jaselski Janneth PAN  1989 92 女子 21 W35 7
182 10:10:09 時間   17.01.2026  Lang, Katrina USA  1990 93 女子 22 W35 8
183 10:11:12 時間   13.01.2024  Ortega, Carlos PAN  1979 38 男子 31 M45 4
184 10:11:13 時間   13.01.2024  Patino Suasty, Oscar PAN  1986 39 男子 32 M35 10
185 10:16:01 時間   17.01.2026  Souhami, Amandine FRA  1987 94 女子 23 W35 9
186 10:16:35 時間   18.01.2025  Arango Serrano, Ernesto PAN  1981 53 男子 43 M40 6
187 10:17:11 時間   17.01.2026  Callejas, Gabriel PAN  1996 95 男子 72 M30 15
188 10:17:12 時間   13.01.2024  Bennett, Rogelio Eduardo PAN  1995 40 男子 33 M20 4
189 10:17:26 時間   17.01.2026  Orozco Arias, Sebastian ECU  1999 96 男子 73 M20 11
190 10:18:12 時間   17.01.2026  Valdes, Ivan PAN  1987 97 男子 74 M35 12
191 10:19:17 時間   13.01.2024  Delgado, Jose Luis PAN  1987 41 男子 34 M35 11
192 10:19:33 時間   13.01.2024  Pitty, Dinora PAN  1984 42 女子 8 W40 1
193 10:20:43 時間   13.01.2024  Moreyra, Alejandro Javier PAN  1976 43 男子 35 M45 5
194 10:21:33 時間   13.01.2024  Carcamo, Jonathan PAN  2000 44 男子 36 M20 5
195 10:22:45 時間   13.01.2024  Villarreal, Jose A. PAN  1989 45 男子 37 M35 12
196 10:25:02 時間   17.01.2026  Munoz Prados, Yaslin Michell PAN  1990 98 女子 24 W35 10
197 10:26:32 時間   17.01.2026  Galeano, Llansy PAN    99 女子 25 #NA  
198 10:28:45 時間   13.01.2024  Sanchez, Juan CRC  1967 46 男子 38 M55 4
199 10:28:54 時間   17.01.2026  Tejeira de Bennett, Isabel PAN  1968 100 女子 26 W55 1
200 10:30:00 時間   18.01.2025  Villarreal, Edwin PAN  1989 54 男子 44 M35 10
201 10:30:29 時間   18.01.2025  Dumanoir, Rogelio PAN  1988 55 男子 45 M35 11
202 10:31:06 時間   17.01.2026  Lao, Jose PAN  1978 101 男子 75 M45 10
203 10:31:12 時間   18.01.2025  de la Rosa Lasa, David Enrique PAN  1999 56 男子 46 M20 7
204 10:31:14 時間   18.01.2025  Brown Ortega, Gil Ernesto PAN  1994 57 男子 47 M30 10
205 10:31:23 時間   18.01.2025  Zhang, Wenke PAN  1987 58 男子 48 M35 12
206 10:32:43 時間   17.01.2026  Xiao, Kaitao CHN  1992 102 男子 76 M30 16
207 10:34:02 時間   17.01.2026  Montecer, Manuel PAN  1971 103 男子 77 M55 3
208 10:34:14 時間   17.01.2026  Carcamo, Jonathan PAN  2000 104 男子 78 M20 12
209 10:34:14 時間   17.01.2026  Cherigo, Katherine PAN  1995 104 女子 27 W30 5
210 10:36:37 時間   17.01.2026  Aizprua, Jocelyn PAN  1989 106 女子 28 W35 11
211 10:36:50 時間   13.01.2024  Frias, David PAN  1993 47 男子 39 M30 5
212 10:37:20 時間   18.01.2025  Martinez Arauz, Kimberly PAN  1996 59 女子 11 W20 1
213 10:37:21 時間   18.01.2025  Sandoval Rivera, Leonel PAN  1991 60 男子 49 M30 11
214 10:38:01 時間   18.01.2025  Corella, Oscar PAN  1995 61 男子 50 M30 12
215 10:38:01 時間   18.01.2025  Terreros, Leyda PAN  1987 61 女子 12 W35 3
216 10:39:14 時間   17.01.2026  Monterroso Sapon, Jose David GUA    107 男子 79 #NA  
217 10:44:49 時間   18.01.2025  Montecer, Manuel PAN  1971 63 男子 51 M50 6
218 10:45:37 時間   18.01.2025  Ortega, Carlos PAN  1979 64 男子 52 M45 6
219 10:45:37 時間   18.01.2025  Montenegro, Llansy PAN  1980 64 女子 13 W45 3
220 10:46:00 時間   18.01.2025  Saldana Candanedo, Gerardo PAN  1987 66 男子 53 M35 13
221 10:46:12 時間   18.01.2025  Perez, Laurie Aimee PAN  1989 67 女子 14 W35 4
222 10:47:57 時間   18.01.2025  Hernandez Pinto, Isaac David VEN  1993 68 男子 54 M30 13
223 10:47:59 時間   18.01.2025  Escudero, Ivan PAN  1976 69 男子 55 M45 7
224 10:51:49 時間   17.01.2026  Palma Tello, Benhur Alejandro PAN    108 男子 80 #NA  
225 10:54:33 時間   17.01.2026  Torres Cerrato, Omar HON  1981 109 男子 81 M45 11
226 10:54:40 時間   17.01.2026  Malek, Enrique PAN  1985 110 男子 82 M40 11
227 10:56:02 時間   13.01.2024  Jaen, Victor PAN  1988 48 男子 40 M35 13
228 10:56:31 時間   17.01.2026  Dominguez, Videl PAN  1994 111 男子 83 M30 17
229 10:56:58 時間   17.01.2026  de Leon Aguilar, Mario PAN  1990 112 男子 84 M35 13